Time;durP1;ratioP1;P1;durP2;ratioP2;P2;SDS_P1;SDS_P2;PMS_P1;PMS_P2;Temp;Humidity;BMP_temperature;BMP_pressure;BME280_temperature;BME280_humidity;BME280_pressure;Samples;Min_cycle;Max_cycle;Signal;HPM_P1;HPM_P2
2023/06/12 00:02:18;;;;;;;5.57;2.75;;;;;;;;;;4973490;28;20042;-86
2023/06/12 00:04:44;;;;;;;8.63;3.13;;;;;;;;;;4962476;28;20070;-85
2023/06/12 00:07:13;;;;;;;6.30;2.80;;;20.10;99.90;;;;;;4973105;28;20046;-85
2023/06/12 00:09:39;;;;;;;8.55;2.90;;;19.70;99.90;;;;;;4959894;28;20038;-85
2023/06/12 00:12:05;;;;;;;5.88;2.65;;;;;;;;;;4979506;28;20045;-86
2023/06/12 00:14:31;;;;;;;5.13;2.78;;;;;;;;;;4972232;28;20050;-86
2023/06/12 00:16:58;;;;;;;4.10;2.50;;;;;;;;;;4978063;28;20039;-85
2023/06/12 00:19:24;;;;;;;8.07;2.53;;;;;;;;;;4971946;28;20045;-87
2023/06/12 00:21:50;;;;;;;4.93;2.65;;;;;;;;;;4977789;28;20561;-85
2023/06/12 00:24:16;;;;;;;7.30;2.40;;;;;;;;;;4966021;28;20835;-86
2023/06/12 00:26:41;;;;;;;4.03;2.65;;;19.30;99.90;;;;;;4970457;28;20050;-85
2023/06/12 00:29:07;;;;;;;5.70;2.67;;;;;;;;;;4953194;28;20093;-86
2023/06/12 00:31:33;;;;;;;7.00;2.35;;;;;;;;;;4977550;28;20411;-86
2023/06/12 00:33:59;;;;;;;6.47;2.40;;;;;;;;;;4975246;28;20042;-86
2023/06/12 00:36:26;;;;;;;5.90;2.35;;;;;;;;;;4973775;28;20053;-85
2023/06/12 00:38:52;;;;;;;5.55;2.30;;;19.30;99.90;;;;;;4956037;28;20532;-86
2023/06/12 00:41:18;;;;;;;3.72;2.25;;;19.50;99.90;;;;;;4992439;28;20054;-85
2023/06/12 00:43:44;;;;;;;4.55;2.58;;;19.40;99.90;;;;;;4979449;28;20826;-85
2023/06/12 00:46:10;;;;;;;5.53;2.50;;;19.40;99.90;;;;;;4972725;28;20429;-85
2023/06/12 00:48:40;;;;;;;3.42;2.40;;;19.20;99.90;;;;;;4962671;28;20046;-85
2023/06/12 00:51:10;;;;;;;4.20;2.17;;;;;;;;;;4972405;28;20042;-86
2023/06/12 00:53:36;;;;;;;7.25;3.38;;;;;;;;;;4969561;28;20050;-87
2023/06/12 00:56:02;;;;;;;5.10;2.10;;;;;;;;;;4972846;28;20047;-85
2023/06/12 00:58:28;;;;;;;3.42;2.10;;;19.50;99.90;;;;;;4960801;28;20077;-85
2023/06/12 01:00:56;;;;;;;4.05;2.35;;;19.30;99.90;;;;;;4959366;28;20125;-85
2023/06/12 01:03:24;;;;;;;6.05;2.38;;;19.40;99.90;;;;;;4979458;28;20038;-85
2023/06/12 01:05:51;;;;;;;4.13;2.22;;;19.60;99.90;;;;;;4965464;28;20093;-85
2023/06/12 01:08:37;;;;;;;8.13;2.25;;;19.30;99.90;;;;;;4959973;28;20444;-86
2023/06/12 01:11:08;;;;;;;8.23;2.40;;;19.20;99.90;;;;;;4975193;28;20508;-86
2023/06/12 01:13:34;;;;;;;5.18;2.40;;;19.10;99.90;;;;;;4960718;28;20052;-85
2023/06/12 01:16:00;;;;;;;4.38;2.28;;;;;;;;;;4975803;28;20049;-85
2023/06/12 01:18:26;;;;;;;6.93;2.40;;;;;;;;;;4975141;28;20130;-85
2023/06/12 01:20:55;;;;;;;7.15;2.13;;;19.00;99.90;;;;;;4972050;28;20042;-85
2023/06/12 01:23:21;;;;;;;4.88;2.20;;;;;;;;;;4971518;28;20206;-85
2023/06/12 01:26:25;;;;;;;8.93;2.45;;;18.60;99.90;;;;;;4976582;28;20467;-85
2023/06/12 01:29:16;;;;;;;7.50;2.28;;;18.60;99.90;;;;;;4975351;28;20050;-85
2023/06/12 01:31:56;;;;;;;5.18;2.30;;;18.80;99.90;;;;;;4977079;28;20138;-86
2023/06/12 01:34:28;;;;;;;3.50;2.00;;;18.80;99.90;;;;;;4960815;28;20057;-86
2023/06/12 01:37:05;;;;;;;4.03;2.17;;;18.70;99.90;;;;;;4980923;28;20047;-85
2023/06/12 01:39:43;;;;;;;6.30;2.45;;;18.80;99.90;;;;;;4965265;28;20138;-85
2023/06/12 01:42:09;;;;;;;4.07;2.22;;;18.90;99.90;;;;;;4978807;28;20559;-85
2023/06/12 01:44:35;;;;;;;7.85;2.65;;;;;;;;;;4961343;28;20053;-86
2023/06/12 01:47:00;;;;;;;7.47;2.65;;;18.60;99.90;;;;;;4977412;28;20440;-85
2023/06/12 01:49:26;;;;;;;4.03;2.10;;;;;;;;;;4990171;28;20068;-86
2023/06/12 01:51:52;;;;;;;8.13;2.38;;;;;;;;;;4977742;28;20141;-86
2023/06/12 01:54:21;;;;;;;4.93;2.20;;;18.60;99.90;;;;;;4961741;28;20050;-85
2023/06/12 01:56:47;;;;;;;5.80;2.28;;;;;;;;;;4979415;28;20480;-85
2023/06/12 01:59:14;;;;;;;5.70;2.40;;;;;;;;;;4975307;28;20085;-85
2023/06/12 02:01:40;;;;;;;4.88;2.50;;;;;;;;;;4973209;28;20092;-85
2023/06/12 02:04:06;;;;;;;5.57;2.15;;;;;;;;;;4963043;28;20038;-85
2023/06/12 02:06:32;;;;;;;7.00;2.50;;;;;;;;;;4971408;28;20050;-85
2023/06/12 02:08:58;;;;;;;5.20;2.58;;;;;;;;;;4965388;28;20120;-86
2023/06/12 02:11:24;;;;;;;4.38;2.42;;;;;;;;;;4980301;28;20416;-86
2023/06/12 02:13:50;;;;;;;6.50;2.47;;;;;;;;;;4981964;28;20050;-85
2023/06/12 02:16:21;;;;;;;3.70;2.45;;;;;;;;;;4973489;28;20107;-85
2023/06/12 02:18:47;;;;;;;6.80;2.63;;;;;;;;;;4964768;28;20038;-85
2023/06/12 02:21:13;;;;;;;6.13;2.10;;;;;;;;;;4963819;28;20042;-85
2023/06/12 02:23:38;;;;;;;5.10;2.30;;;18.10;99.90;;;;;;4981943;28;20104;-85
2023/06/12 02:26:04;;;;;;;5.45;2.92;;;;;;;;;;4959263;28;20044;-86
2023/06/12 02:28:31;;;;;;;7.10;2.80;;;;;;;;;;4976265;28;20088;-85
2023/06/12 02:30:57;;;;;;;9.77;2.53;;;;;;;;;;4975663;28;20573;-85
2023/06/12 02:33:25;;;;;;;5.55;2.35;;;;;;;;;;4981793;28;20992;-86
2023/06/12 02:35:51;;;;;;;5.35;2.63;;;17.50;99.90;;;;;;4989239;28;20558;-85
2023/06/12 02:38:17;;;;;;;5.30;2.90;;;;;;;;;;4957647;28;20062;-85
2023/06/12 02:40:43;;;;;;;7.20;2.70;;;;;;;;;;4985282;28;20053;-85
2023/06/12 02:43:09;;;;;;;9.02;2.60;;;;;;;;;;4983762;28;20408;-85
2023/06/12 02:45:35;;;;;;;6.40;2.28;;;;;;;;;;4970194;28;20042;-85
2023/06/12 02:48:01;;;;;;;8.38;2.60;;;;;;;;;;4966064;28;20130;-85
2023/06/12 02:50:26;;;;;;;6.78;2.58;;;17.50;99.90;;;;;;4984104;28;20129;-85
2023/06/12 02:52:52;;;;;;;12.00;2.90;;;;;;;;;;4981168;28;20512;-85
2023/06/12 02:55:18;;;;;;;3.58;2.30;;;17.30;99.90;;;;;;4983722;28;20608;-85
2023/06/12 02:57:44;;;;;;;5.20;2.22;;;;;;;;;;4989036;28;20042;-86
2023/06/12 03:00:12;;;;;;;5.30;2.28;;;17.20;99.90;;;;;;4974414;28;20120;-85
2023/06/12 03:02:42;;;;;;;8.25;2.85;;;17.00;99.90;;;;;;4984639;28;20093;-85
2023/06/12 03:05:12;;;;;;;6.00;2.60;;;16.90;99.90;;;;;;4982684;28;20050;-85
2023/06/12 03:07:40;;;;;;;6.88;3.05;;;16.80;99.90;;;;;;4973013;28;20034;-85
2023/06/12 03:10:06;;;;;;;6.93;2.58;;;16.80;99.90;;;;;;4980307;28;20500;-85
2023/06/12 03:12:32;;;;;;;9.43;2.95;;;;;;;;;;4958297;28;20038;-85
2023/06/12 03:14:59;;;;;;;5.63;2.20;;;16.90;99.90;;;;;;4982402;28;20049;-85
2023/06/12 03:17:24;;;;;;;9.93;2.70;;;16.90;99.90;;;;;;4970089;28;20052;-85
2023/06/12 03:19:50;;;;;;;6.05;2.92;;;;;;;;;;4986273;28;20053;-86
2023/06/12 03:22:16;;;;;;;9.60;3.42;;;;;;;;;;4967409;28;20088;-85
2023/06/12 03:24:43;;;;;;;10.43;2.97;;;;;;;;;;4979283;28;20093;-85
2023/06/12 03:27:10;;;;;;;6.60;2.60;;;16.30;99.90;;;;;;4981531;28;20065;-85
2023/06/12 03:29:36;;;;;;;10.13;2.95;;;16.30;99.90;;;;;;4987708;28;20516;-85
2023/06/12 03:32:02;;;;;;;7.75;2.33;;;;;;;;;;4961329;28;20043;-85
2023/06/12 03:34:28;;;;;;;8.40;2.45;;;;;;;;;;4980249;28;20089;-85
2023/06/12 03:36:54;;;;;;;9.40;3.13;;;;;;;;;;4970252;28;20136;-84
2023/06/12 03:39:20;;;;;;;5.60;2.75;;;;;;;;;;4973186;28;20054;-86
2023/06/12 03:41:55;;;;;;;4.28;2.50;;;16.40;99.90;;;;;;4975384;28;20038;-85
2023/06/12 03:44:21;;;;;;;8.48;2.80;;;16.40;99.90;;;;;;4977204;28;20058;-85
2023/06/12 03:46:47;;;;;;;6.50;2.05;;;;;;;;;;4982943;28;20050;-86
2023/06/12 03:49:13;;;;;;;6.80;2.58;;;;;;;;;;4982023;28;20045;-85
2023/06/12 03:51:39;;;;;;;11.52;3.22;;;;;;;;;;4983334;28;20447;-85
2023/06/12 03:54:06;;;;;;;9.65;3.15;;;;;;;;;;4962856;28;20095;-85
2023/06/12 03:56:32;;;;;;;4.70;2.45;;;16.40;99.90;;;;;;4971505;28;20052;-85
2023/06/12 03:58:58;;;;;;;4.78;2.67;;;;;;;;;;4977179;28;20038;-86
2023/06/12 04:01:24;;;;;;;8.02;2.50;;;;;;;;;;4973211;28;20077;-85
2023/06/12 04:03:51;;;;;;;10.98;3.00;;;;;;;;;;4974697;28;20423;-85
2023/06/12 04:06:17;;;;;;;5.55;2.45;;;16.50;99.90;;;;;;4970714;28;20161;-85
2023/06/12 04:08:45;;;;;;;5.22;2.80;;;;;;;;;;4967350;28;20133;-85
2023/06/12 04:11:14;;;;;;;6.07;3.03;;;;;;;;;;4972811;28;20422;-86
2023/06/12 04:13:40;;;;;;;4.95;2.38;;;16.50;99.90;;;;;;4966672;28;20496;-85
2023/06/12 04:16:06;;;;;;;7.40;2.50;;;;;;;;;;4977596;28;20084;-85
2023/06/12 04:18:32;;;;;;;8.63;2.55;;;16.50;99.90;;;;;;4976025;28;20139;-85
2023/06/12 04:21:00;;;;;;;7.72;2.95;;;16.60;99.90;;;;;;4980727;28;20112;-85
2023/06/12 04:23:31;;;;;;;6.90;2.47;;;16.70;99.90;;;;;;4961837;28;20038;-86
2023/06/12 04:26:05;;;;;;;5.18;2.53;;;16.70;99.90;;;;;;4955787;28;20046;-85
2023/06/12 04:28:31;;;;;;;8.20;3.23;;;16.60;99.90;;;;;;4959025;28;20049;-85
2023/06/12 04:30:59;;;;;;;6.90;2.53;;;;;;;;;;4980759;28;20287;-85
2023/06/12 04:33:28;;;;;;;8.68;3.05;;;;;;;;;;4979471;28;20042;-85
2023/06/12 04:35:55;;;;;;;8.30;2.42;;;;;;;;;;4962834;28;20038;-85
2023/06/12 04:38:23;;;;;;;7.80;2.72;;;;;;;;;;4984338;28;20555;-85
2023/06/12 04:40:51;;;;;;;4.95;2.47;;;;;;;;;;4981739;28;20038;-85
2023/06/12 04:43:19;;;;;;;8.52;2.92;;;16.40;99.90;;;;;;4963031;28;20125;-86
2023/06/12 04:45:45;;;;;;;8.07;2.58;;;;;;;;;;4963493;28;20046;-85
2023/06/12 04:48:12;;;;;;;9.05;3.00;;;;;;;;;;4960623;28;20519;-87
2023/06/12 04:50:38;;;;;;;6.55;2.80;;;17.50;99.90;;;;;;4959423;28;20042;-85
2023/06/12 04:53:04;;;;;;;8.15;2.75;;;;;;;;;;4972542;28;20526;-85
2023/06/12 04:55:30;;;;;;;7.20;2.78;;;17.80;99.90;;;;;;4967791;28;20056;-85
2023/06/12 04:57:58;;;;;;;8.60;2.83;;;17.90;99.90;;;;;;4955015;28;20052;-86
2023/06/12 05:00:25;;;;;;;5.25;2.60;;;;;;;;;;4972248;28;20044;-85
2023/06/12 05:02:53;;;;;;;8.70;2.72;;;18.80;99.90;;;;;;4984982;28;20038;-87
2023/06/12 05:05:19;;;;;;;7.07;2.65;;;19.20;99.90;;;;;;4982446;28;20050;-85
2023/06/12 05:07:45;;;;;;;7.10;2.55;;;19.70;99.90;;;;;;4986598;28;20492;-85
2023/06/12 05:10:13;;;;;;;7.45;2.85;;;19.80;99.90;;;;;;4974886;28;20133;-87
2023/06/12 05:12:39;;;;;;;7.78;2.33;;;20.40;99.90;;;;;;4968327;28;20039;-86
2023/06/12 05:15:05;;;;;;;6.82;2.33;;;20.60;99.90;;;;;;4968602;28;20403;-86
2023/06/12 05:17:31;;;;;;;9.68;2.40;;;20.50;99.90;;;;;;4966764;28;20180;-86
2023/06/12 05:19:57;;;;;;;7.30;2.63;;;20.60;99.90;;;;;;4960749;28;20030;-85
2023/06/12 05:22:23;;;;;;;4.15;2.47;;;21.70;99.90;;;;;;4976145;28;20042;-86
2023/06/12 05:24:48;;;;;;;4.10;2.03;;;20.50;99.90;;;;;;4974009;28;20045;-85
2023/06/12 05:27:14;;;;;;;5.75;2.20;;;20.40;99.90;;;;;;4969136;28;20050;-87
2023/06/12 05:29:40;;;;;;;7.35;2.30;;;20.70;99.90;;;;;;4972547;28;20829;-86
2023/06/12 05:32:06;;;;;;;6.93;3.42;;;21.10;99.90;;;;;;4978122;28;20041;-85
2023/06/12 05:34:31;;;;;;;9.32;2.38;;;21.80;99.90;;;;;;4967965;28;20145;-87
2023/06/12 05:36:57;;;;;;;12.90;3.60;;;22.00;99.90;;;;;;4989657;28;20085;-86
2023/06/12 05:39:23;;;;;;;6.63;2.30;;;24.70;99.90;;;;;;4985779;28;20038;-86
2023/06/12 05:41:48;;;;;;;5.38;2.42;;;23.00;99.90;;;;;;4979595;28;20523;-86
2023/06/12 05:44:14;;;;;;;5.63;3.05;;;24.70;99.90;;;;;;4962375;28;20404;-86
2023/06/12 05:46:39;;;;;;;6.13;2.00;;;23.50;99.90;;;;;;4978961;28;20050;-86
2023/06/12 05:49:05;;;;;;;3.88;1.95;;;24.20;99.90;;;;;;4963216;28;20137;-86
2023/06/12 05:51:30;;;;;;;8.02;2.50;;;24.20;99.90;;;;;;4976734;28;20057;-86
2023/06/12 05:53:56;;;;;;;7.55;1.92;;;25.20;99.90;;;;;;5001199;28;20200;-86
2023/06/12 05:56:23;;;;;;;9.68;2.55;;;27.10;99.90;;;;;;4976660;28;20089;-86
2023/06/12 05:58:49;;;;;;;6.72;2.50;;;27.30;99.90;;;;;;4970748;28;20467;-86
2023/06/12 06:01:17;;;;;;;4.82;2.33;;;25.10;99.90;;;;;;4989580;28;20125;-86
2023/06/12 06:03:45;;;;;;;6.38;1.95;;;25.80;99.90;;;;;;4978735;28;20380;-86
2023/06/12 06:06:11;;;;;;;8.20;1.95;;;26.90;99.90;;;;;;4960896;28;20056;-86
2023/06/12 06:08:38;;;;;;;7.88;2.28;;;27.30;99.90;;;;;;5002089;28;20133;-86
2023/06/12 06:11:04;;;;;;;7.30;1.98;;;26.70;99.90;;;;;;4979382;28;20037;-87
2023/06/12 06:13:29;;;;;;;7.32;2.20;;;26.90;99.90;;;;;;4975345;28;20042;-86
2023/06/12 06:15:55;;;;;;;5.97;2.40;;;29.80;99.90;;;;;;4962692;28;20044;-86
2023/06/12 06:18:21;;;;;;;5.70;2.00;;;29.70;99.90;;;;;;4975638;28;20089;-87
2023/06/12 06:20:46;;;;;;;10.15;2.05;;;28.80;99.90;;;;;;4993836;28;20046;-87
2023/06/12 06:23:12;;;;;;;6.45;2.20;;;28.20;99.90;;;;;;4982906;28;20780;-86
2023/06/12 06:25:38;;;;;;;6.43;2.53;;;28.10;99.90;;;;;;4971662;28;20402;-88
2023/06/12 06:28:04;;;;;;;5.07;2.30;;;28.20;99.90;;;;;;4983011;28;20053;-87
2023/06/12 06:30:30;;;;;;;4.68;1.88;;;28.80;99.90;;;;;;5000393;28;20104;-87
2023/06/12 06:32:56;;;;;;;8.73;2.45;;;29.00;99.90;;;;;;4981381;28;20073;-88
2023/06/12 06:35:21;;;;;;;7.15;2.17;;;30.60;99.90;;;;;;4969767;28;20050;-87
2023/06/12 06:37:47;;;;;;;9.38;2.75;;;28.00;99.90;;;;;;4976087;28;20087;-86
2023/06/12 06:40:14;;;;;;;6.82;2.03;;;27.70;99.90;;;;;;4962250;28;20053;-87
2023/06/12 06:42:41;;;;;;;4.43;2.47;;;27.10;99.90;;;;;;4979848;28;20053;-86
2023/06/12 06:45:07;;;;;;;6.85;2.83;;;26.80;99.90;;;;;;4974150;28;20496;-86
2023/06/12 06:47:33;;;;;;;8.13;2.65;;;26.20;99.90;;;;;;4976095;28;20047;-87
2023/06/12 06:49:59;;;;;;;3.97;2.20;;;26.70;99.90;;;;;;4970277;28;20057;-86
2023/06/12 06:52:25;;;;;;;8.50;2.50;;;27.40;99.90;;;;;;4965981;28;20038;-86
2023/06/12 06:54:52;;;;;;;7.15;2.70;;;25.90;99.90;;;;;;4952688;28;20049;-87
2023/06/12 06:57:18;;;;;;;5.15;2.63;;;24.10;99.90;;;;;;4964149;28;20038;-86
2023/06/12 06:59:44;;;;;;;8.90;2.40;;;24.30;99.90;;;;;;4960360;28;20128;-86
2023/06/12 07:02:10;;;;;;;7.93;2.63;;;24.30;99.90;;;;;;4955171;28;20571;-87
2023/06/12 07:04:36;;;;;;;5.43;1.92;;;24.10;99.90;;;;;;4970848;28;20461;-87
2023/06/12 07:07:03;;;;;;;7.05;2.40;;;24.00;99.90;;;;;;4984074;28;20043;-85
2023/06/12 07:09:29;;;;;;;7.35;2.22;;;24.00;99.90;;;;;;4962165;28;20419;-90
2023/06/12 07:11:55;;;;;;;5.18;2.05;;;23.90;99.90;;;;;;4976214;28;20054;-88
2023/06/12 07:14:20;;;;;;;5.78;2.55;;;26.20;99.90;;;;;;4967303;28;20458;-87
2023/06/12 07:16:46;;;;;;;5.47;2.72;;;24.10;99.90;;;;;;4979523;28;20042;-85
2023/06/12 07:19:12;;;;;;;5.63;2.40;;;24.00;99.90;;;;;;4965696;28;20074;-85
2023/06/12 07:21:38;;;;;;;6.53;2.90;;;24.00;99.90;;;;;;4957388;28;20123;-86
2023/06/12 07:24:04;;;;;;;7.80;2.25;;;24.00;99.90;;;;;;4978058;28;20125;-89
2023/06/12 07:26:30;;;;;;;5.78;2.00;;;24.00;99.90;;;;;;4969970;28;20506;-87
2023/06/12 07:28:56;;;;;;;5.60;2.08;;;25.50;99.90;;;;;;4960304;28;20145;-87
2023/06/12 07:31:21;;;;;;;11.07;2.45;;;23.90;99.90;;;;;;4962168;28;20070;-87
2023/06/12 07:33:47;;;;;;;4.80;2.33;;;25.80;99.90;;;;;;4958821;28;20544;-86
2023/06/12 07:36:14;;;;;;;8.32;2.60;;;25.50;99.90;;;;;;4965607;28;20042;-87
2023/06/12 07:38:41;;;;;;;4.18;2.33;;;23.90;99.90;;;;;;4973825;28;20049;-87
2023/06/12 07:41:07;;;;;;;7.35;2.17;;;25.60;99.90;;;;;;4986393;28;20042;-89
2023/06/12 07:43:34;;;;;;;7.93;2.20;;;24.00;99.90;;;;;;4972098;28;20423;-86
2023/06/12 07:46:03;;;;;;;7.97;2.97;;;24.10;99.90;;;;;;4981887;28;20148;-86
2023/06/12 07:48:29;;;;;;;6.43;2.38;;;24.20;99.90;;;;;;5003612;28;20077;-85
2023/06/12 07:50:55;;;;;;;7.50;2.50;;;24.10;99.90;;;;;;4985861;28;20124;-86
2023/06/12 07:53:23;;;;;;;8.40;3.03;;;25.00;99.90;;;;;;4985352;28;20128;-86
2023/06/12 07:55:51;;;;;;;7.25;2.70;;;24.20;99.90;;;;;;4973952;28;20042;-86
2023/06/12 07:58:17;;;;;;;10.73;3.55;;;24.30;99.90;;;;;;4986348;28;20046;-87
2023/06/12 08:00:43;;;;;;;5.43;2.50;;;24.40;99.90;;;;;;4966930;28;20052;-86
2023/06/12 08:03:08;;;;;;;7.15;3.10;;;24.10;99.90;;;;;;4980789;28;20053;-86
2023/06/12 08:05:34;;;;;;;9.05;2.97;;;25.00;99.90;;;;;;4980367;28;20049;-84
2023/06/12 08:08:00;;;;;;;7.72;2.40;;;26.00;99.90;;;;;;4984545;28;20472;-85
2023/06/12 08:10:26;;;;;;;9.23;2.83;;;24.10;99.90;;;;;;4984960;28;20042;-87
2023/06/12 08:12:52;;;;;;;6.80;2.58;;;26.10;99.90;;;;;;4980476;28;20528;-85
2023/06/12 08:15:19;;;;;;;7.28;3.05;;;26.20;99.90;;;;;;4975783;28;20046;-87
2023/06/12 08:17:44;;;;;;;6.63;2.95;;;24.50;99.90;;;;;;4972793;28;20040;-84
2023/06/12 08:20:10;;;;;;;6.68;2.42;;;24.40;99.90;;;;;;4985324;28;20050;-87
2023/06/12 08:22:37;;;;;;;6.00;2.40;;;24.70;99.90;;;;;;4964892;28;20076;-87
2023/06/12 08:25:07;;;;;;;6.45;2.58;;;24.50;99.90;;;;;;4971349;28;20042;-87
2023/06/12 08:27:33;;;;;;;8.55;2.53;;;24.80;99.90;;;;;;4969237;28;20042;-87
2023/06/12 08:29:59;;;;;;;5.05;3.08;;;25.70;99.90;;;;;;4967865;28;20033;-86
2023/06/12 08:32:26;;;;;;;5.95;2.75;;;24.70;99.90;;;;;;4999803;28;20087;-86
2023/06/12 08:34:53;;;;;;;6.65;2.50;;;26.90;99.90;;;;;;4977591;28;20581;-85
2023/06/12 08:37:19;;;;;;;8.27;2.63;;;25.50;99.90;;;;;;4958619;28;20042;-85
2023/06/12 08:39:45;;;;;;;5.03;2.65;;;24.60;99.90;;;;;;4951822;28;20039;-87
2023/06/12 08:42:18;;;;;;;6.60;2.92;;;27.00;99.90;;;;;;4967237;28;20560;-87
2023/06/12 08:44:45;;;;;;;5.55;2.47;;;27.00;99.90;;;;;;4963644;28;20044;-85
2023/06/12 08:47:11;;;;;;;5.85;2.75;;;25.30;99.90;;;;;;4962232;28;20509;-87
2023/06/12 08:49:37;;;;;;;7.93;2.65;;;24.80;99.90;;;;;;4956581;28;20504;-85
2023/06/12 08:52:04;;;;;;;6.40;2.88;;;25.20;99.90;;;;;;4963386;28;20041;-86
2023/06/12 08:54:33;;;;;;;7.65;2.40;;;25.10;99.90;;;;;;4964245;28;20042;-86
2023/06/12 08:56:59;;;;;;;5.28;3.10;;;27.10;99.90;;;;;;4966176;28;20493;-85
2023/06/12 08:59:25;;;;;;;6.22;2.40;;;25.20;99.90;;;;;;4973870;28;20433;-86
2023/06/12 09:01:53;;;;;;;6.25;2.45;;;26.90;99.90;;;;;;4961929;28;20039;-86
2023/06/12 09:04:37;;;;;;;5.53;2.25;;;26.60;99.90;;;;;;4979579;28;20050;-86
2023/06/12 09:07:03;;;;;;;5.63;2.47;;;25.30;99.90;;;;;;4980799;28;20050;-86
2023/06/12 09:09:41;;;;;;;7.70;2.70;;;25.30;99.90;;;;;;4956759;28;20286;-86
2023/06/12 09:12:12;;;;;;;7.78;3.00;;;25.20;99.90;;;;;;4976494;28;20459;-85
2023/06/12 09:14:44;;;;;;;5.45;2.50;;;26.20;99.90;;;;;;4980967;28;20476;-88
2023/06/12 09:17:10;;;;;;;5.35;2.30;;;25.60;99.90;;;;;;4964292;28;20130;-87
2023/06/12 09:19:45;;;;;;;3.85;2.47;;;25.00;99.90;;;;;;4967800;28;20654;-87
2023/06/12 09:22:11;;;;;;;11.23;2.78;;;26.00;99.90;;;;;;4965044;28;20074;-86
2023/06/12 09:24:37;;;;;;;8.38;3.20;;;27.10;99.90;;;;;;4969350;28;20048;-86
2023/06/12 09:27:04;;;;;;;9.13;3.30;;;27.80;99.90;;;;;;4969635;28;20447;-88
2023/06/12 09:29:31;;;;;;;8.35;2.88;;;25.50;99.90;;;;;;4969180;28;20038;-86
2023/06/12 09:32:02;;;;;;;9.35;2.53;;;27.00;99.90;;;;;;4966175;28;20496;-87
2023/06/12 09:34:30;;;;;;;6.88;2.78;;;25.50;99.90;;;;;;4964668;28;20077;-86
2023/06/12 09:36:56;;;;;;;9.45;2.80;;;25.50;99.90;;;;;;4973535;28;20042;-88
2023/06/12 09:39:29;;;;;;;11.32;3.08;;;27.50;99.90;;;;;;4969126;28;20057;-88
2023/06/12 09:41:55;;;;;;;6.28;3.38;;;25.90;99.90;;;;;;4979093;28;20109;-88
2023/06/12 09:44:22;;;;;;;4.90;2.85;;;28.30;99.90;;;;;;4982341;28;20560;-88
2023/06/12 09:46:49;;;;;;;6.63;3.00;;;27.30;99.90;;;;;;4982322;28;20053;-87
2023/06/12 09:49:14;;;;;;;8.18;3.03;;;25.60;99.90;;;;;;4977955;28;20053;-87
2023/06/12 09:51:46;;;;;;;4.80;2.42;;;26.00;99.90;;;;;;4983503;28;20034;-87
2023/06/12 09:54:16;;;;;;;8.40;2.80;;;26.10;99.90;;;;;;4971269;28;20522;-86
2023/06/12 09:56:46;;;;;;;7.50;2.63;;;27.30;99.90;;;;;;4971315;28;20049;-86
2023/06/12 09:59:18;;;;;;;9.27;3.22;;;26.10;99.90;;;;;;4966091;28;20477;-89
2023/06/12 10:01:59;;;;;;;6.38;2.88;;;26.90;99.90;;;;;;4980760;28;20718;-85
2023/06/12 10:04:34;;;;;;;6.70;2.58;;;26.20;99.90;;;;;;5001442;28;20096;-86
2023/06/12 10:07:21;;;;;;;6.10;2.72;;;25.90;99.90;;;;;;4976721;28;20070;-87
2023/06/12 10:09:47;;;;;;;5.50;2.40;;;26.60;99.90;;;;;;4984896;28;20053;-88
2023/06/12 10:12:14;;;;;;;4.40;2.70;;;26.30;99.90;;;;;;4991110;28;20050;-87
2023/06/12 10:14:40;;;;;;;5.18;2.17;;;28.80;99.90;;;;;;4995705;28;20081;-85
2023/06/12 10:17:07;;;;;;;8.02;2.25;;;27.10;99.90;;;;;;4985098;28;20150;-85
2023/06/12 10:19:37;;;;;;;4.10;2.28;;;26.60;99.90;;;;;;4963459;28;20053;-84
2023/06/12 10:22:06;;;;;;;3.40;1.98;;;26.40;99.90;;;;;;4988343;28;20038;-86
2023/06/12 10:24:33;;;;;;;3.95;2.35;;;26.70;99.90;;;;;;4988015;28;20034;-85
2023/06/12 10:27:00;;;;;;;6.30;2.63;;;27.80;99.90;;;;;;4972657;28;20499;-85
2023/06/12 10:29:30;;;;;;;4.65;2.60;;;27.50;99.90;;;;;;4981736;28;20173;-85
2023/06/12 10:32:22;;;;;;;6.03;2.17;;;27.00;99.90;;;;;;4975290;28;20034;-86
2023/06/12 10:34:52;;;;;;;8.43;2.58;;;27.90;99.90;;;;;;4982390;28;20144;-86
2023/06/12 10:37:32;;;;;;;7.82;2.92;;;26.90;99.90;;;;;;4967422;28;20050;-88
2023/06/12 10:40:10;;;;;;;6.45;3.17;;;26.80;99.90;;;;;;4981243;28;20048;-86
2023/06/12 10:42:39;;;;;;;5.97;3.13;;;26.80;99.90;;;;;;4971810;28;20034;-87
2023/06/12 10:45:15;;;;;;;7.60;3.15;;;28.30;99.90;;;;;;4985991;28;20117;-87
2023/06/12 10:47:41;;;;;;;7.25;3.30;;;27.50;99.90;;;;;;4987416;28;20051;-86
2023/06/12 10:50:08;;;;;;;5.80;2.85;;;27.30;99.80;;;;;;4986249;28;20046;-86
2023/06/12 10:52:34;;;;;;;4.93;3.45;;;28.20;99.90;;;;;;4972812;28;20038;-86
2023/06/12 10:55:32;;;;;;;4.88;3.45;;;27.10;99.90;;;;;;4972226;28;20409;-88
2023/06/12 10:58:19;;;;;;;5.00;3.38;;;27.40;99.90;;;;;;4974005;28;20392;-88
2023/06/12 11:00:47;;;;;;;9.13;3.90;;;27.30;99.90;;;;;;4971345;28;20050;-87
2023/06/12 11:03:17;;;;;;;7.25;3.55;;;29.10;99.90;;;;;;4978853;28;20045;-87
2023/06/12 11:05:55;;;;;;;6.68;4.30;;;27.00;99.90;;;;;;4986685;28;20033;-87
2023/06/12 11:08:21;;;;;;;5.68;3.45;;;27.70;99.90;;;;;;4971372;28;20801;-86
2023/06/12 11:10:46;;;;;;;5.78;3.70;;;29.90;99.90;;;;;;4971958;28;20041;-86
2023/06/12 11:13:12;;;;;;;7.28;3.70;;;27.90;99.90;;;;;;4969281;28;20053;-86
2023/06/12 11:15:43;;;;;;;7.93;3.67;;;28.40;99.90;;;;;;4971289;28;20060;-87
2023/06/12 11:18:09;;;;;;;5.35;2.90;;;28.60;99.90;;;;;;4971364;28;20096;-86
2023/06/12 11:20:35;;;;;;;3.67;2.50;;;28.80;98.90;;;;;;4965292;28;20471;-86
2023/06/12 11:23:01;;;;;;;5.97;3.72;;;29.00;98.90;;;;;;4972307;28;20038;-87
2023/06/12 11:25:31;;;;;;;5.20;2.55;;;27.60;97.50;;;;;;4976697;28;20033;-86
2023/06/12 11:27:56;;;;;;;6.50;2.35;;;27.80;96.30;;;;;;4988269;28;20042;-86
2023/06/12 11:30:24;;;;;;;3.67;2.67;;;29.80;97.50;;;;;;4981419;28;20045;-86
2023/06/12 11:32:50;;;;;;;4.85;3.10;;;30.30;98.00;;;;;;4989504;28;20505;-86
2023/06/12 11:35:16;;;;;;;5.25;3.17;;;28.60;98.30;;;;;;4985918;28;20038;-86
2023/06/12 11:37:41;;;;;;;5.32;3.42;;;27.80;98.10;;;;;;4982461;28;20047;-88
2023/06/12 11:40:10;;;;;;;4.15;3.25;;;29.00;98.80;;;;;;4985579;28;20053;-87
2023/06/12 11:42:37;;;;;;;4.65;3.05;;;28.10;97.90;;;;;;4969529;28;20547;-88
2023/06/12 11:45:10;;;;;;;7.85;3.55;;;27.90;98.60;;;;;;4983375;28;20121;-87
2023/06/12 11:47:39;;;;;;;6.05;4.30;;;28.00;99.30;;;;;;4970939;28;20045;-87
2023/06/12 11:50:15;;;;;;;5.05;3.58;;;30.30;99.90;;;;;;4969909;28;20046;-91
2023/06/12 11:52:43;;;;;;;7.35;4.30;;;28.00;98.90;;;;;;4968568;28;20046;-88
2023/06/12 11:55:14;;;;;;;6.22;4.40;;;30.50;99.20;;;;;;4968530;28;20125;-87
2023/06/12 11:57:47;;;;;;;6.03;4.15;;;28.70;99.10;;;;;;4968897;28;20039;-86
2023/06/12 12:00:16;;;;;;;8.32;4.68;;;30.50;99.60;;;;;;4968117;28;20036;-88
2023/06/12 12:02:44;;;;;;;8.60;4.32;;;27.00;97.90;;;;;;4967346;28;20039;-87
2023/06/12 12:05:11;;;;;;;7.78;5.03;;;29.70;99.10;;;;;;4962397;28;20047;-88
2023/06/12 12:07:39;;;;;;;6.13;4.22;;;28.20;98.70;;;;;;4961694;28;20042;-87
2023/06/12 12:10:14;;;;;;;7.55;4.63;;;30.40;99.00;;;;;;4968732;28;20149;-87
2023/06/12 12:13:00;;;;;;;6.85;4.45;;;30.20;98.80;;;;;;4962814;28;20520;-90
2023/06/12 12:15:31;;;;;;;6.40;4.57;;;27.90;98.70;;;;;;4982119;28;20117;-87
2023/06/12 12:17:58;;;;;;;7.93;4.55;;;28.10;99.90;;;;;;4986343;28;20073;-88
2023/06/12 12:20:25;;;;;;;6.03;4.50;;;29.70;99.90;;;;;;4969419;28;20046;-87
2023/06/12 12:22:56;;;;;;;7.10;5.22;;;30.20;99.90;;;;;;4965194;28;20030;-88
2023/06/12 12:25:27;;;;;;;8.32;4.70;;;27.90;99.40;;;;;;4970817;28;20053;-88
2023/06/12 12:27:56;;;;;;;5.75;4.43;;;30.20;99.90;;;;;;4970669;28;20049;-87
2023/06/12 12:30:22;;;;;;;7.50;4.65;;;30.10;99.70;;;;;;4966172;28;20105;-91
2023/06/12 12:32:54;;;;;;;9.88;4.68;;;30.30;99.90;;;;;;4973076;28;20038;-87
2023/06/12 12:35:21;;;;;;;8.05;4.38;;;30.50;99.30;;;;;;4961700;28;20093;-88
2023/06/12 12:37:47;;;;;;;5.22;4.70;;;30.60;97.30;;;;;;4979000;28;20060;-88
2023/06/12 12:40:14;;;;;;;5.97;4.65;;;29.10;96.70;;;;;;4984239;28;20092;-88
2023/06/12 12:42:42;;;;;;;6.45;4.50;;;27.90;96.90;;;;;;4989113;28;20488;-87
2023/06/12 12:45:10;;;;;;;9.15;4.60;;;28.20;97.70;;;;;;4985804;28;20042;-88
2023/06/12 12:47:36;;;;;;;10.35;4.38;;;28.20;96.80;;;;;;4972726;28;20045;-89
2023/06/12 12:50:03;;;;;;;9.55;4.20;;;28.50;97.70;;;;;;4985604;28;20042;-87
2023/06/12 12:52:30;;;;;;;8.48;4.95;;;27.90;98.00;;;;;;4981816;28;20053;-88
2023/06/12 12:54:56;;;;;;;8.20;4.93;;;29.50;97.50;;;;;;4967255;28;20695;-88
2023/06/12 12:57:22;;;;;;;9.35;4.85;;;28.10;98.10;;;;;;4983527;28;20470;-87
2023/06/12 12:59:49;;;;;;;6.50;4.50;;;27.70;97.30;;;;;;4965174;28;20050;-90
2023/06/12 13:02:15;;;;;;;6.07;4.72;;;28.10;97.00;;;;;;4970288;28;20069;-89
2023/06/12 13:04:40;;;;;;;6.32;4.20;;;28.90;98.30;;;;;;4963771;28;20038;-87
2023/06/12 13:07:06;;;;;;;9.15;4.68;;;30.30;98.90;;;;;;4967459;28;20127;-88
2023/06/12 13:09:32;;;;;;;8.88;5.53;;;29.20;97.10;;;;;;4968823;28;20045;-87
2023/06/12 13:11:58;;;;;;;7.55;4.78;;;30.20;97.40;;;;;;4972924;28;20555;-89
2023/06/12 13:14:23;;;;;;;9.18;5.07;;;30.70;97.90;;;;;;4970426;28;20050;-87